• Join FlightAware (Why Join?)
  • Login
  • US Flag 
06:43PM EDT


 

Airport Tracker/Info


-or-


 

Live Flight TrackerFlight Track Log ✈ N137TK ✈ 23-Jun-2013 ✈ KAPF - KEYW

Flight Track Log - Related Links

Times and Time Zones

All times are in EDT time to prevent confusion due to time zone crossing. See the N137TK flight status page for this flight to view local times or setup timezone preferences in your user account.

Time Position Orientation Groundspeed Altitude Reporting Facility
EDT Latitude Longitude Course Direction KTS MPH feet Rate Location/Type
09:10AM 26.0975 -81.8511 179° South 164 189 5,000  Level Miami Center
09:11AM 26.0472 -81.8536 183° South 164 189 6,800 1,800 Climbing Miami Center
09:12AM 26.0014 -81.8517 178° South 174 200 8,700 1,080 Climbing Miami Center
09:13AM 25.9472 -81.8469 176° South 181 208 9,000 120 Climbing Miami Center
09:14AM 25.8344 -81.7724 179° South  Level Estimated
09:14AM 25.8806 -81.8442 178° South 217 250 9,000  Level Miami Center
09:15AM 25.7814 -81.7719 179° South  Level Estimated
09:15AM 25.8119 -81.8392 176° South 237 273 9,000  Level Miami Center
09:16AM 25.7453 -81.8342 176° South 243 280 9,000  Level Miami Center
09:17AM 25.6744 -81.8289 176° South 250 288 9,000 -60 Level Miami Center
09:18AM 25.6036 -81.8258 178° South 250 288 8,900 -60 Descending Miami Center
09:19AM 25.5369 -81.8208 176° South 250 288 8,900 -360 Level Miami Center
09:20AM 25.4639 -81.8203 180° South 255 293 8,200 -540 Descending Miami Center
09:21AM 25.3931 -81.8150 176° South 260 299 7,900 -180 Descending Miami Center
09:22AM 25.3200 -81.8097 176° South 260 299 7,900  Level Miami Center
09:23AM 25.2536 -81.8025 174° South 255 293 7,900  Level Miami Center
09:24AM 25.1847 -81.7997 178° South 255 293 7,900  Level Miami Center
09:25AM 25.1139 -81.7944 176° South 255 293 8,000 -180 Climbing Miami Center
09:26AM 25.0450 -81.7917 178° South 255 293 7,600 -720 Descending Miami Center
09:27AM 24.9700 -81.7864 176° South 260 299 6,600 -1,020 Descending Miami Center
09:28AM 24.8950 -81.7811 176° South 266 306 5,600 -1,080 Descending Miami Center
09:29AM 24.8222 -81.7758 176° South 271 312 4,500 -1,080 Descending Miami Center
09:30AM 24.7489 -81.7822 185° South 271 312 3,500 -1,020 Descending Miami Center
09:31AM 24.6794 -81.7931 188° South 271 312 2,500 -1,020 Descending Miami Center
09:32AM 24.6208 -81.8044 190° South 248 285 1,500 -1,020 Descending Miami Center
09:34AM 24.5561 -81.7596 190° South  Level Estimated
09:41AM 24.5561 -81.7596 190° South  Level Estimated
09:42AM 24.5561 -81.7596 190° South  Level Estimated
09:43AM 24.5561 -81.7596 190° South  Level Estimated